Terminal Aerodrome Forecast
Issued by NWS

Home | Current Version | Previous Version | Text Only | Print | Product List | Glossary On
Versions: 1 2 3 4 5 6 7 8 9 10 11 12 13 14 15 16 17 18 19 20 21 22 23 24 25
000
FTUS46 KSEW 301728
TAFSEA
TAF
KSEA 301728Z 3018/0124 VRB03KT P6SM SCT022
      TEMPO 3018/3019 BKN022
     FM302100 34008KT P6SM SCT050
     FM010600 03006KT P6SM SKC
     FM012000 35012KT P6SM SKC=

USA.gov is the U.S. government's official web portal to all federal, state and local government web resources and services.